Time,TemperatureF,DewpointF,PressureIn,WindDirection,WindDirectionDegrees,WindSpeedMPH,WindSpeedGustMPH,Humidity,HourlyPrecipIn,Conditions,Clouds,dailyrainin,SoftwareType,DateUTC
2013-06-01 00:12:00,68.4,68.0,29.92,SSW,211,0.0,0.0,97,0.00,,,0.01,weatherlink.com 1.10,2013-06-01 04:12:00,
2013-06-01 00:27:00,68.3,68.0,29.92,SSW,211,0.0,0.0,97,0.00,,,0.01,weatherlink.com 1.10,2013-06-01 04:27:00,
2013-06-01 00:42:00,68.3,68.0,29.92,SSW,211,0.0,1.0,97,0.00,,,0.01,weatherlink.com 1.10,2013-06-01 04:42:00,
2013-06-01 00:57:00,68.2,67.0,29.91,SSW,211,0.0,0.0,97,0.00,,,0.01,weatherlink.com 1.10,2013-06-01 04:57:00,
2013-06-01 01:12:00,68.2,67.0,29.90,SSW,211,0.0,0.0,97,0.00,,,0.01,weatherlink.com 1.10,2013-06-01 05:12:00,
2013-06-01 01:27:00,68.3,68.0,29.91,SSW,211,0.0,1.0,97,0.00,,,0.01,weatherlink.com 1.10,2013-06-01 05:27:00,
2013-06-01 01:42:00,68.2,67.0,29.90,SSW,211,0.0,0.0,97,0.00,,,0.01,weatherlink.com 1.10,2013-06-01 05:42:00,
2013-06-01 01:57:00,68.2,67.0,29.89,SSW,211,0.0,1.0,97,0.00,,,0.01,weatherlink.com 1.10,2013-06-01 05:57:00,
2013-06-01 02:12:00,68.3,68.0,29.89,SSW,211,0.0,1.0,97,0.00,,,0.01,weatherlink.com 1.10,2013-06-01 06:12:00,
2013-06-01 02:27:00,68.3,67.0,29.89,SSW,211,0.0,1.0,96,0.00,,,0.01,weatherlink.com 1.10,2013-06-01 06:27:00,
2013-06-01 02:42:00,68.4,67.0,29.88,SSW,211,0.0,1.0,96,0.00,,,0.01,weatherlink.com 1.10,2013-06-01 06:42:00,
2013-06-01 02:57:00,68.5,67.0,29.88,SSW,211,0.0,0.0,95,0.00,,,0.01,weatherlink.com 1.10,2013-06-01 06:57:00,
2013-06-01 03:12:00,68.4,67.0,29.89,SSW,211,0.0,0.0,95,0.00,,,0.01,weatherlink.com 1.10,2013-06-01 07:12:00,
2013-06-01 03:27:00,68.4,67.0,29.88,SSW,211,0.0,0.0,95,0.00,,,0.01,weatherlink.com 1.10,2013-06-01 07:27:00,
2013-06-01 03:42:00,68.6,67.0,29.87,SSW,211,0.0,1.0,95,0.00,,,0.01,weatherlink.com 1.10,2013-06-01 07:42:00,
2013-06-01 03:57:00,68.8,67.0,29.86,SSW,211,0.0,2.0,94,0.00,,,0.01,weatherlink.com 1.10,2013-06-01 07:57:00,
2013-06-01 04:12:00,68.8,67.0,29.86,SSW,211,0.0,1.0,93,0.00,,,0.01,weatherlink.com 1.10,2013-06-01 08:12:00,
2013-06-01 04:27:00,68.9,67.0,29.85,SSW,211,0.0,1.0,93,0.00,,,0.01,weatherlink.com 1.10,2013-06-01 08:27:00,
2013-06-01 04:42:00,68.8,67.0,29.84,South,189,0.0,2.0,93,0.00,,,0.01,weatherlink.com 1.10,2013-06-01 08:42:00,
2013-06-01 04:57:00,68.9,67.0,29.85,South,189,0.0,1.0,92,0.00,,,0.01,weatherlink.com 1.10,2013-06-01 08:57:00,
2013-06-01 05:12:00,68.9,67.0,29.84,South,189,0.0,1.0,92,0.00,,,0.01,weatherlink.com 1.10,2013-06-01 09:12:00,
2013-06-01 05:28:00,68.9,67.0,29.84,South,189,0.0,2.0,92,0.00,,,0.01,weatherlink.com 1.10,2013-06-01 09:28:00,
2013-06-01 05:42:00,68.9,66.0,29.84,SSW,192,0.0,1.0,91,0.00,,,0.01,weatherlink.com 1.10,2013-06-01 09:42:00,
2013-06-01 05:57:00,68.8,66.0,29.83,SSW,192,0.0,1.0,91,0.00,,,0.01,weatherlink.com 1.10,2013-06-01 09:57:00,
2013-06-01 06:12:00,68.6,66.0,29.83,SSW,192,0.0,1.0,92,0.00,,,0.01,weatherlink.com 1.10,2013-06-01 10:12:00,
2013-06-01 06:27:00,68.6,66.0,29.84,SSW,192,0.0,0.0,92,0.00,,,0.01,weatherlink.com 1.10,2013-06-01 10:27:00,
2013-06-01 06:42:00,68.7,66.0,29.84,SSW,192,0.0,1.0,91,0.00,,,0.01,weatherlink.com 1.10,2013-06-01 10:42:00,
2013-06-01 06:57:00,69.0,66.0,29.84,SSW,205,0.0,2.0,91,0.00,,,0.01,weatherlink.com 1.10,2013-06-01 10:57:00,
2013-06-01 07:12:00,69.5,67.0,29.85,South,172,1.0,2.0,90,0.00,,,0.01,weatherlink.com 1.10,2013-06-01 11:12:00,
2013-06-01 07:27:00,69.6,66.0,29.85,SSW,196,0.0,2.0,89,0.00,,,0.01,weatherlink.com 1.10,2013-06-01 11:27:00,
2013-06-01 07:42:00,70.0,66.0,29.86,SSE,167,1.0,3.0,88,0.00,,,0.01,weatherlink.com 1.10,2013-06-01 11:42:00,
2013-06-01 07:57:00,70.6,67.0,29.86,SSW,209,1.0,4.0,87,0.00,,,0.01,weatherlink.com 1.10,2013-06-01 11:57:00,
2013-06-01 08:12:00,70.6,67.0,29.86,SSW,195,0.0,3.0,87,0.00,,,0.01,weatherlink.com 1.10,2013-06-01 12:12:00,
2013-06-01 08:27:00,70.5,67.0,29.86,SSW,196,0.0,4.0,88,0.00,,,0.01,weatherlink.com 1.10,2013-06-01 12:27:00,
2013-06-01 08:42:00,70.8,67.0,29.86,South,189,0.0,3.0,87,0.00,,,0.01,weatherlink.com 1.10,2013-06-01 12:42:00,
2013-06-01 08:57:00,71.7,67.0,29.86,SSW,195,2.0,3.0,86,0.00,,,0.01,weatherlink.com 1.10,2013-06-01 12:57:00,
2013-06-01 09:12:00,72.1,67.0,29.86,SSW,201,1.0,5.0,85,0.00,,,0.01,weatherlink.com 1.10,2013-06-01 13:12:00,
2013-06-01 09:27:00,72.2,68.0,29.85,SSW,209,0.0,3.0,86,0.00,,,0.01,weatherlink.com 1.10,2013-06-01 13:27:00,
2013-06-01 09:42:00,72.1,68.0,29.86,SSW,197,3.0,3.0,86,0.00,,,0.01,weatherlink.com 1.10,2013-06-01 13:42:00,
2013-06-01 09:57:00,71.8,68.0,29.85,SSW,198,0.0,1.0,87,0.00,,,0.01,weatherlink.com 1.10,2013-06-01 13:57:00,
2013-06-01 10:12:00,72.1,68.0,29.85,SSW,199,1.0,3.0,87,0.00,,,0.01,weatherlink.com 1.10,2013-06-01 14:12:00,
2013-06-01 10:27:00,72.4,68.0,29.85,SSW,209,0.0,4.0,86,0.00,,,0.01,weatherlink.com 1.10,2013-06-01 14:27:00,
2013-06-01 10:42:00,72.7,68.0,29.85,SSW,192,1.0,4.0,86,0.00,,,0.01,weatherlink.com 1.10,2013-06-01 14:42:00,
2013-06-01 10:57:00,72.9,69.0,29.85,South,191,2.0,2.0,86,0.00,,,0.01,weatherlink.com 1.10,2013-06-01 14:57:00,
2013-06-01 11:12:00,73.3,69.0,29.86,SSW,198,2.0,6.0,85,0.00,,,0.01,weatherlink.com 1.10,2013-06-01 15:12:00,
2013-06-01 11:28:00,73.8,69.0,29.86,South,187,1.0,3.0,84,0.00,,,0.01,weatherlink.com 1.10,2013-06-01 15:28:00,
2013-06-01 11:43:00,73.8,69.0,29.87,SSW,207,1.0,4.0,84,0.00,,,0.01,weatherlink.com 1.10,2013-06-01 15:43:00,
2013-06-01 11:58:00,74.2,69.0,29.87,SSW,198,0.0,4.0,83,0.00,,,0.01,weatherlink.com 1.10,2013-06-01 15:58:00,
2013-06-01 12:13:00,74.8,69.0,29.86,South,170,0.0,5.0,82,0.00,,,0.01,weatherlink.com 1.10,2013-06-01 16:13:00,
2013-06-01 12:28:00,74.9,69.0,29.86,SSE,165,0.0,7.0,81,0.00,,,0.01,weatherlink.com 1.10,2013-06-01 16:28:00,
2013-06-01 12:43:00,75.5,69.0,29.85,SW,217,0.0,4.0,81,0.00,,,0.01,weatherlink.com 1.10,2013-06-01 16:43:00,
2013-06-01 12:58:00,76.2,69.0,29.85,SSW,204,3.0,7.0,79,0.00,,,0.01,weatherlink.com 1.10,2013-06-01 16:58:00,
2013-06-01 13:13:00,76.3,69.0,29.85,SSW,198,7.0,9.0,77,0.00,,,0.01,weatherlink.com 1.10,2013-06-01 17:13:00,
2013-06-01 13:28:00,76.4,68.0,29.85,SSE,157,4.0,8.0,76,0.00,,,0.01,weatherlink.com 1.10,2013-06-01 17:28:00,
2013-06-01 13:43:00,76.9,68.0,29.84,SSE,159,1.0,7.0,75,0.00,,,0.01,weatherlink.com 1.10,2013-06-01 17:43:00,
2013-06-01 13:58:00,77.8,69.0,29.84,SSW,197,4.0,6.0,75,0.00,,,0.01,weatherlink.com 1.10,2013-06-01 17:58:00,
2013-06-01 14:13:00,78.6,68.0,29.84,SSW,205,4.0,5.0,71,0.00,,,0.01,weatherlink.com 1.10,2013-06-01 18:13:00,
2013-06-01 14:28:00,79.7,69.0,29.84,SW,236,1.0,6.0,69,0.00,,,0.01,weatherlink.com 1.10,2013-06-01 18:28:00,
2013-06-01 14:43:00,79.1,68.0,29.84,WSW,257,2.0,8.0,69,0.00,,,0.01,weatherlink.com 1.10,2013-06-01 18:43:00,
2013-06-01 14:58:00,78.6,68.0,29.84,SSW,202,2.0,6.0,70,0.00,,,0.01,weatherlink.com 1.10,2013-06-01 18:58:00,
2013-06-01 15:13:00,78.7,69.0,29.83,SSW,202,1.0,6.0,71,0.00,,,0.01,weatherlink.com 1.10,2013-06-01 19:13:00,
2013-06-01 15:28:00,78.4,69.0,29.83,SSW,202,2.0,5.0,72,0.00,,,0.01,weatherlink.com 1.10,2013-06-01 19:28:00,
2013-06-01 15:43:00,78.8,69.0,29.82,SSW,202,7.0,7.0,71,0.00,,,0.01,weatherlink.com 1.10,2013-06-01 19:43:00,
2013-06-01 15:58:00,79.3,69.0,29.82,SW,232,5.0,8.0,70,0.00,,,0.01,weatherlink.com 1.10,2013-06-01 19:58:00,
2013-06-01 16:13:00,79.7,69.0,29.82,WNW,292,5.0,9.0,70,0.00,,,0.01,weatherlink.com 1.10,2013-06-01 20:13:00,
2013-06-01 16:28:00,80.1,70.0,29.81,SSW,209,3.0,13.0,70,0.00,,,0.01,weatherlink.com 1.10,2013-06-01 20:28:00,
2013-06-01 16:43:00,80.7,70.0,29.80,SW,226,3.0,7.0,69,0.00,,,0.01,weatherlink.com 1.10,2013-06-01 20:43:00,
2013-06-01 16:58:00,80.0,69.0,29.80,SW,219,2.0,11.0,69,0.00,,,0.01,weatherlink.com 1.10,2013-06-01 20:58:00,
2013-06-01 17:13:00,80.3,69.0,29.80,SSW,198,2.0,9.0,68,0.00,,,0.01,weatherlink.com 1.10,2013-06-01 21:13:00,
2013-06-01 17:28:00,79.5,69.0,29.79,SSW,202,4.0,7.0,71,0.00,,,0.00,weatherlink.com 1.10,2013-06-01 21:28:00,
2013-06-01 17:43:00,79.6,69.0,29.79,SSW,208,3.0,7.0,71,0.00,,,0.00,weatherlink.com 1.10,2013-06-01 21:43:00,
2013-06-01 17:58:00,79.2,70.0,29.78,SE,144,2.0,5.0,73,0.00,,,0.00,weatherlink.com 1.10,2013-06-01 21:58:00,
2013-06-01 18:13:00,79.3,70.0,29.77,SSW,209,2.0,6.0,74,0.00,,,0.00,weatherlink.com 1.10,2013-06-01 22:13:00,
2013-06-01 18:28:00,79.1,70.0,29.77,South,190,1.0,3.0,74,0.00,,,0.00,weatherlink.com 1.10,2013-06-01 22:28:00,
2013-06-01 18:43:00,78.4,70.0,29.76,SSW,209,1.0,3.0,76,0.00,,,0.00,weatherlink.com 1.10,2013-06-01 22:43:00,
2013-06-01 18:58:00,78.4,71.0,29.75,SSW,209,1.0,3.0,77,0.00,,,0.00,weatherlink.com 1.10,2013-06-01 22:58:00,
2013-06-01 19:13:00,78.4,71.0,29.75,SSW,201,1.0,4.0,77,0.00,,,0.00,weatherlink.com 1.10,2013-06-01 23:13:00,
2013-06-01 19:28:00,77.9,70.0,29.73,SSE,164,0.0,3.0,77,0.00,,,0.00,weatherlink.com 1.10,2013-06-01 23:28:00,
2013-06-01 19:44:00,77.1,70.0,29.73,SSW,205,1.0,2.0,79,0.00,,,0.00,weatherlink.com 1.10,2013-06-01 23:44:00,
2013-06-01 19:59:00,76.9,70.0,29.74,SSW,208,2.0,4.0,79,0.00,,,0.00,weatherlink.com 1.10,2013-06-01 23:59:00,
2013-06-01 20:14:00,76.7,70.0,29.75,SSW,193,0.0,3.0,79,0.00,,,0.00,weatherlink.com 1.10,2013-06-02 00:14:00,
2013-06-01 20:29:00,76.4,70.0,29.76,SSW,195,2.0,5.0,80,0.00,,,0.00,weatherlink.com 1.10,2013-06-02 00:29:00,
2013-06-01 20:44:00,76.1,70.0,29.76,SSW,192,1.0,3.0,81,0.00,,,0.00,weatherlink.com 1.10,2013-06-02 00:44:00,
2013-06-01 20:59:00,75.5,71.0,29.75,South,184,0.0,1.0,85,0.00,,,0.00,weatherlink.com 1.10,2013-06-02 00:59:00,
2013-06-01 21:14:00,73.7,70.0,29.75,NE,34,0.0,2.0,89,0.25,,,0.25,weatherlink.com 1.10,2013-06-02 01:14:00,
2013-06-01 21:29:00,71.3,69.0,29.74,South,190,3.0,5.0,93,0.65,,,0.65,weatherlink.com 1.10,2013-06-02 01:29:00,
2013-06-01 21:44:00,71.0,70.0,29.75,SSW,194,0.0,2.0,95,0.67,,,0.67,weatherlink.com 1.10,2013-06-02 01:44:00,
2013-06-01 21:59:00,71.3,70.0,29.75,SSW,194,1.0,1.0,96,0.68,,,0.68,weatherlink.com 1.10,2013-06-02 01:59:00,
2013-06-01 22:14:00,71.3,70.0,29.76,SSW,194,1.0,3.0,96,0.41,,,0.68,weatherlink.com 1.10,2013-06-02 02:14:00,
2013-06-01 22:29:00,71.2,70.0,29.76,SSW,194,0.0,2.0,96,0.02,,,0.68,weatherlink.com 1.10,2013-06-02 02:29:00,
2013-06-01 22:44:00,71.1,70.0,29.76,SSW,194,0.0,2.0,96,0.01,,,0.68,weatherlink.com 1.10,2013-06-02 02:44:00,
2013-06-01 22:59:00,71.2,70.0,29.76,SSW,192,1.0,3.0,97,0.00,,,0.68,weatherlink.com 1.10,2013-06-02 02:59:00,
2013-06-01 23:14:00,71.1,70.0,29.76,SSW,197,0.0,4.0,96,0.00,,,0.68,weatherlink.com 1.10,2013-06-02 03:14:00,
2013-06-01 23:29:00,71.0,70.0,29.77,South,190,3.0,5.0,96,0.00,,,0.68,weatherlink.com 1.10,2013-06-02 03:29:00,
2013-06-01 23:44:00,70.8,69.0,29.77,SSW,198,2.0,4.0,95,0.01,,,0.69,weatherlink.com 1.10,2013-06-02 03:44:00,
2013-06-01 23:59:00,70.3,69.0,29.77,South,190,2.0,3.0,95,0.01,,,0.69,weatherlink.com 1.10,2013-06-02 03:59:00,